sensor_id;sensor_type;location;lat;lon;timestamp;P1;durP1;ratioP1;P2;durP2;ratioP2
71253;SDS011;59019;47.638;18.966;2022-12-05T00:01:37;10.95;;;4.97;;
71253;SDS011;59019;47.638;18.966;2022-12-05T00:04:11;9.77;;;4.10;;
71253;SDS011;59019;47.638;18.966;2022-12-05T00:06:38;9.50;;;3.72;;
71253;SDS011;59019;47.638;18.966;2022-12-05T00:09:06;9.80;;;3.90;;
71253;SDS011;59019;47.638;18.966;2022-12-05T00:11:35;9.07;;;4.25;;
71253;SDS011;59019;47.638;18.966;2022-12-05T00:14:02;10.15;;;4.18;;
71253;SDS011;59019;47.638;18.966;2022-12-05T00:16:30;7.87;;;3.30;;
71253;SDS011;59019;47.638;18.966;2022-12-05T00:18:58;9.90;;;4.25;;
71253;SDS011;59019;47.638;18.966;2022-12-05T00:21:25;11.10;;;4.93;;
71253;SDS011;59019;47.638;18.966;2022-12-05T00:23:52;10.73;;;4.40;;
71253;SDS011;59019;47.638;18.966;2022-12-05T00:26:19;10.02;;;4.35;;
71253;SDS011;59019;47.638;18.966;2022-12-05T00:28:45;11.00;;;4.70;;
71253;SDS011;59019;47.638;18.966;2022-12-05T00:31:14;15.65;;;6.53;;
71253;SDS011;59019;47.638;18.966;2022-12-05T00:33:42;17.27;;;7.55;;
71253;SDS011;59019;47.638;18.966;2022-12-05T00:36:10;20.00;;;9.52;;
71253;SDS011;59019;47.638;18.966;2022-12-05T00:38:47;22.90;;;10.38;;
71253;SDS011;59019;47.638;18.966;2022-12-05T00:41:14;20.43;;;9.87;;
71253;SDS011;59019;47.638;18.966;2022-12-05T00:43:42;23.10;;;11.10;;
71253;SDS011;59019;47.638;18.966;2022-12-05T00:46:10;23.88;;;11.45;;
71253;SDS011;59019;47.638;18.966;2022-12-05T00:48:37;24.25;;;11.80;;
71253;SDS011;59019;47.638;18.966;2022-12-05T00:51:04;24.37;;;11.23;;
71253;SDS011;59019;47.638;18.966;2022-12-05T00:53:34;23.60;;;11.25;;
71253;SDS011;59019;47.638;18.966;2022-12-05T00:56:23;24.57;;;11.63;;
71253;SDS011;59019;47.638;18.966;2022-12-05T00:58:47;24.30;;;11.05;;
71253;SDS011;59019;47.638;18.966;2022-12-05T01:01:15;22.38;;;10.63;;
71253;SDS011;59019;47.638;18.966;2022-12-05T01:03:41;22.50;;;10.65;;
71253;SDS011;59019;47.638;18.966;2022-12-05T01:06:07;24.65;;;10.90;;
71253;SDS011;59019;47.638;18.966;2022-12-05T01:08:35;27.73;;;13.20;;
71253;SDS011;59019;47.638;18.966;2022-12-05T01:11:01;25.52;;;12.10;;
71253;SDS011;59019;47.638;18.966;2022-12-05T01:13:28;22.73;;;10.93;;
71253;SDS011;59019;47.638;18.966;2022-12-05T01:15:54;21.67;;;9.77;;
71253;SDS011;59019;47.638;18.966;2022-12-05T01:18:20;24.07;;;10.10;;
71253;SDS011;59019;47.638;18.966;2022-12-05T01:20:47;22.48;;;9.98;;
71253;SDS011;59019;47.638;18.966;2022-12-05T01:23:14;20.73;;;10.30;;
71253;SDS011;59019;47.638;18.966;2022-12-05T01:25:45;19.33;;;9.73;;
71253;SDS011;59019;47.638;18.966;2022-12-05T01:28:13;22.07;;;8.90;;
71253;SDS011;59019;47.638;18.966;2022-12-05T01:30:40;19.17;;;8.82;;
71253;SDS011;59019;47.638;18.966;2022-12-05T01:33:07;18.38;;;8.45;;
71253;SDS011;59019;47.638;18.966;2022-12-05T01:35:33;19.73;;;8.75;;
71253;SDS011;59019;47.638;18.966;2022-12-05T01:38:00;17.33;;;8.43;;
71253;SDS011;59019;47.638;18.966;2022-12-05T01:40:26;19.63;;;8.73;;
71253;SDS011;59019;47.638;18.966;2022-12-05T01:42:52;19.35;;;8.70;;
71253;SDS011;59019;47.638;18.966;2022-12-05T01:45:21;19.43;;;9.40;;
71253;SDS011;59019;47.638;18.966;2022-12-05T01:47:51;18.20;;;9.23;;
71253;SDS011;59019;47.638;18.966;2022-12-05T01:50:18;20.35;;;10.30;;
71253;SDS011;59019;47.638;18.966;2022-12-05T01:52:43;22.05;;;9.90;;
71253;SDS011;59019;47.638;18.966;2022-12-05T01:55:11;21.50;;;9.40;;
71253;SDS011;59019;47.638;18.966;2022-12-05T01:57:38;20.98;;;9.63;;
71253;SDS011;59019;47.638;18.966;2022-12-05T02:00:09;20.20;;;9.37;;
71253;SDS011;59019;47.638;18.966;2022-12-05T02:02:36;18.17;;;8.55;;
71253;SDS011;59019;47.638;18.966;2022-12-05T02:05:06;17.95;;;8.48;;
71253;SDS011;59019;47.638;18.966;2022-12-05T02:07:40;18.23;;;8.48;;
71253;SDS011;59019;47.638;18.966;2022-12-05T02:10:07;18.95;;;9.10;;
71253;SDS011;59019;47.638;18.966;2022-12-05T02:12:34;17.27;;;7.63;;
71253;SDS011;59019;47.638;18.966;2022-12-05T02:31:45;17.73;;;7.95;;
71253;SDS011;59019;47.638;18.966;2022-12-05T02:37:16;16.75;;;7.25;;
71253;SDS011;59019;47.638;18.966;2022-12-05T02:39:50;18.10;;;7.53;;
71253;SDS011;59019;47.638;18.966;2022-12-05T02:45:15;15.75;;;7.10;;
71253;SDS011;59019;47.638;18.966;2022-12-05T02:47:46;16.05;;;7.65;;
71253;SDS011;59019;47.638;18.966;2022-12-05T02:50:16;15.80;;;7.82;;
71253;SDS011;59019;47.638;18.966;2022-12-05T02:52:46;16.00;;;6.20;;
71253;SDS011;59019;47.638;18.966;2022-12-05T02:55:13;17.35;;;7.30;;
71253;SDS011;59019;47.638;18.966;2022-12-05T02:57:41;12.93;;;6.45;;
71253;SDS011;59019;47.638;18.966;2022-12-05T03:00:11;16.92;;;7.65;;
71253;SDS011;59019;47.638;18.966;2022-12-05T03:02:40;13.75;;;6.38;;
71253;SDS011;59019;47.638;18.966;2022-12-05T03:07:37;12.57;;;5.90;;
71253;SDS011;59019;47.638;18.966;2022-12-05T03:10:04;14.23;;;6.53;;
71253;SDS011;59019;47.638;18.966;2022-12-05T03:12:40;15.48;;;5.82;;
71253;SDS011;59019;47.638;18.966;2022-12-05T03:15:13;14.48;;;6.28;;
71253;SDS011;59019;47.638;18.966;2022-12-05T03:17:58;14.23;;;6.53;;
71253;SDS011;59019;47.638;18.966;2022-12-05T03:20:34;13.50;;;6.05;;
71253;SDS011;59019;47.638;18.966;2022-12-05T03:23:07;13.23;;;5.82;;
71253;SDS011;59019;47.638;18.966;2022-12-05T03:25:49;13.20;;;5.75;;
71253;SDS011;59019;47.638;18.966;2022-12-05T03:28:30;14.02;;;5.57;;
71253;SDS011;59019;47.638;18.966;2022-12-05T03:31:08;12.23;;;5.77;;
71253;SDS011;59019;47.638;18.966;2022-12-05T03:33:41;14.88;;;6.15;;
71253;SDS011;59019;47.638;18.966;2022-12-05T03:36:14;12.73;;;5.82;;
71253;SDS011;59019;47.638;18.966;2022-12-05T03:38:44;13.68;;;6.15;;
71253;SDS011;59019;47.638;18.966;2022-12-05T03:49:06;12.68;;;5.95;;
71253;SDS011;59019;47.638;18.966;2022-12-05T03:51:38;13.52;;;5.97;;
71253;SDS011;59019;47.638;18.966;2022-12-05T03:56:55;13.17;;;6.00;;
71253;SDS011;59019;47.638;18.966;2022-12-05T04:02:09;14.02;;;5.80;;
71253;SDS011;59019;47.638;18.966;2022-12-05T04:04:44;13.98;;;5.93;;
71253;SDS011;59019;47.638;18.966;2022-12-05T04:07:15;12.02;;;5.10;;
71253;SDS011;59019;47.638;18.966;2022-12-05T04:09:43;11.83;;;5.50;;
71253;SDS011;59019;47.638;18.966;2022-12-05T04:12:14;13.45;;;5.82;;
71253;SDS011;59019;47.638;18.966;2022-12-05T04:14:47;13.32;;;6.13;;
71253;SDS011;59019;47.638;18.966;2022-12-05T04:20:04;13.10;;;5.47;;
71253;SDS011;59019;47.638;18.966;2022-12-05T04:22:50;14.33;;;6.37;;
71253;SDS011;59019;47.638;18.966;2022-12-05T04:25:16;15.20;;;6.95;;
71253;SDS011;59019;47.638;18.966;2022-12-05T04:36:41;15.07;;;6.50;;
71253;SDS011;59019;47.638;18.966;2022-12-05T04:39:01;17.13;;;6.28;;
71253;SDS011;59019;47.638;18.966;2022-12-05T04:41:41;16.55;;;6.80;;
71253;SDS011;59019;47.638;18.966;2022-12-05T04:44:14;15.83;;;7.23;;
71253;SDS011;59019;47.638;18.966;2022-12-05T04:46:43;14.13;;;6.38;;
71253;SDS011;59019;47.638;18.966;2022-12-05T04:49:12;14.25;;;6.80;;
71253;SDS011;59019;47.638;18.966;2022-12-05T04:51:42;14.90;;;6.50;;
71253;SDS011;59019;47.638;18.966;2022-12-05T04:54:13;16.75;;;6.55;;
71253;SDS011;59019;47.638;18.966;2022-12-05T04:56:53;15.23;;;6.20;;
71253;SDS011;59019;47.638;18.966;2022-12-05T04:59:24;15.80;;;7.05;;
71253;SDS011;59019;47.638;18.966;2022-12-05T05:01:52;17.58;;;7.63;;
71253;SDS011;59019;47.638;18.966;2022-12-05T05:04:28;17.53;;;8.00;;
71253;SDS011;59019;47.638;18.966;2022-12-05T05:07:07;16.63;;;7.28;;
71253;SDS011;59019;47.638;18.966;2022-12-05T05:09:34;18.65;;;7.82;;
71253;SDS011;59019;47.638;18.966;2022-12-05T05:12:00;17.30;;;7.43;;
71253;SDS011;59019;47.638;18.966;2022-12-05T05:14:26;17.05;;;6.93;;
71253;SDS011;59019;47.638;18.966;2022-12-05T05:16:51;17.07;;;7.17;;
71253;SDS011;59019;47.638;18.966;2022-12-05T05:19:16;15.97;;;7.43;;
71253;SDS011;59019;47.638;18.966;2022-12-05T05:21:42;16.95;;;7.57;;
71253;SDS011;59019;47.638;18.966;2022-12-05T05:24:09;18.70;;;8.03;;
71253;SDS011;59019;47.638;18.966;2022-12-05T05:26:36;15.82;;;7.22;;
71253;SDS011;59019;47.638;18.966;2022-12-05T05:29:04;18.35;;;8.00;;
71253;SDS011;59019;47.638;18.966;2022-12-05T05:31:30;16.87;;;7.57;;
71253;SDS011;59019;47.638;18.966;2022-12-05T05:33:57;17.80;;;7.63;;
71253;SDS011;59019;47.638;18.966;2022-12-05T05:36:23;17.00;;;7.72;;
71253;SDS011;59019;47.638;18.966;2022-12-05T05:38:51;17.70;;;8.02;;
71253;SDS011;59019;47.638;18.966;2022-12-05T05:41:20;19.13;;;9.00;;
71253;SDS011;59019;47.638;18.966;2022-12-05T05:43:47;20.80;;;8.95;;
71253;SDS011;59019;47.638;18.966;2022-12-05T05:46:14;19.60;;;8.93;;
71253;SDS011;59019;47.638;18.966;2022-12-05T05:48:41;19.42;;;8.65;;
71253;SDS011;59019;47.638;18.966;2022-12-05T05:51:07;19.40;;;9.20;;
71253;SDS011;59019;47.638;18.966;2022-12-05T05:53:34;19.42;;;8.82;;
71253;SDS011;59019;47.638;18.966;2022-12-05T05:56:03;22.00;;;9.37;;
71253;SDS011;59019;47.638;18.966;2022-12-05T05:58:30;20.92;;;8.95;;
71253;SDS011;59019;47.638;18.966;2022-12-05T06:01:29;19.75;;;8.77;;
71253;SDS011;59019;47.638;18.966;2022-12-05T06:03:48;20.27;;;9.47;;
71253;SDS011;59019;47.638;18.966;2022-12-05T06:06:14;18.42;;;8.32;;
71253;SDS011;59019;47.638;18.966;2022-12-05T06:08:41;21.63;;;9.05;;
71253;SDS011;59019;47.638;18.966;2022-12-05T06:11:09;21.17;;;9.25;;
71253;SDS011;59019;47.638;18.966;2022-12-05T06:13:35;19.40;;;8.97;;
71253;SDS011;59019;47.638;18.966;2022-12-05T06:16:03;19.20;;;8.52;;
71253;SDS011;59019;47.638;18.966;2022-12-05T06:18:30;21.67;;;9.25;;
71253;SDS011;59019;47.638;18.966;2022-12-05T06:20:56;21.83;;;9.50;;
71253;SDS011;59019;47.638;18.966;2022-12-05T06:23:23;20.20;;;9.32;;
71253;SDS011;59019;47.638;18.966;2022-12-05T06:25:50;22.07;;;9.63;;
71253;SDS011;59019;47.638;18.966;2022-12-05T06:28:18;22.05;;;9.52;;
71253;SDS011;59019;47.638;18.966;2022-12-05T06:30:44;21.08;;;10.23;;
71253;SDS011;59019;47.638;18.966;2022-12-05T06:33:10;18.73;;;9.40;;
71253;SDS011;59019;47.638;18.966;2022-12-05T06:35:36;20.33;;;9.30;;
71253;SDS011;59019;47.638;18.966;2022-12-05T06:38:01;23.23;;;9.10;;
71253;SDS011;59019;47.638;18.966;2022-12-05T06:40:27;21.80;;;9.70;;
71253;SDS011;59019;47.638;18.966;2022-12-05T06:42:52;20.73;;;9.00;;
71253;SDS011;59019;47.638;18.966;2022-12-05T06:45:19;21.60;;;9.37;;
71253;SDS011;59019;47.638;18.966;2022-12-05T06:47:44;20.02;;;9.10;;
71253;SDS011;59019;47.638;18.966;2022-12-05T06:50:10;17.85;;;8.68;;
71253;SDS011;59019;47.638;18.966;2022-12-05T06:52:35;17.95;;;8.60;;
71253;SDS011;59019;47.638;18.966;2022-12-05T06:55:01;22.07;;;9.83;;
71253;SDS011;59019;47.638;18.966;2022-12-05T06:57:27;18.42;;;8.35;;
71253;SDS011;59019;47.638;18.966;2022-12-05T06:59:52;21.87;;;9.30;;
71253;SDS011;59019;47.638;18.966;2022-12-05T07:02:38;21.40;;;9.52;;
71253;SDS011;59019;47.638;18.966;2022-12-05T07:05:06;18.73;;;9.07;;
71253;SDS011;59019;47.638;18.966;2022-12-05T07:07:32;23.27;;;9.90;;
71253;SDS011;59019;47.638;18.966;2022-12-05T07:09:57;19.47;;;9.17;;
71253;SDS011;59019;47.638;18.966;2022-12-05T07:12:23;20.90;;;9.10;;
71253;SDS011;59019;47.638;18.966;2022-12-05T07:14:48;20.08;;;9.25;;
71253;SDS011;59019;47.638;18.966;2022-12-05T12:26:40;30.98;;;14.98;;
71253;SDS011;59019;47.638;18.966;2022-12-05T12:34:52;28.63;;;14.82;;
71253;SDS011;59019;47.638;18.966;2022-12-05T12:40:12;28.38;;;13.27;;
71253;SDS011;59019;47.638;18.966;2022-12-05T12:42:50;26.77;;;12.30;;
71253;SDS011;59019;47.638;18.966;2022-12-05T12:48:08;24.33;;;11.90;;
71253;SDS011;59019;47.638;18.966;2022-12-05T12:50:34;24.98;;;12.23;;
71253;SDS011;59019;47.638;18.966;2022-12-05T13:02:11;22.77;;;11.30;;
71253;SDS011;59019;47.638;18.966;2022-12-05T13:08:41;24.80;;;12.30;;
71253;SDS011;59019;47.638;18.966;2022-12-05T13:11:34;22.33;;;11.60;;
71253;SDS011;59019;47.638;18.966;2022-12-05T13:14:23;24.45;;;12.45;;
71253;SDS011;59019;47.638;18.966;2022-12-05T13:17:13;21.65;;;11.68;;
71253;SDS011;59019;47.638;18.966;2022-12-05T13:20:03;24.90;;;12.38;;
71253;SDS011;59019;47.638;18.966;2022-12-05T13:22:49;22.42;;;11.45;;
71253;SDS011;59019;47.638;18.966;2022-12-05T13:25:36;19.50;;;10.70;;
71253;SDS011;59019;47.638;18.966;2022-12-05T13:28:35;23.58;;;11.32;;
71253;SDS011;59019;47.638;18.966;2022-12-05T13:31:39;22.77;;;11.25;;
71253;SDS011;59019;47.638;18.966;2022-12-05T13:37:19;26.85;;;12.95;;
71253;SDS011;59019;47.638;18.966;2022-12-05T13:40:34;28.07;;;13.97;;
71253;SDS011;59019;47.638;18.966;2022-12-05T13:43:43;23.52;;;12.27;;
71253;SDS011;59019;47.638;18.966;2022-12-05T13:46:38;24.85;;;12.57;;
71253;SDS011;59019;47.638;18.966;2022-12-05T13:52:31;24.13;;;13.35;;
71253;SDS011;59019;47.638;18.966;2022-12-05T13:55:36;23.77;;;12.87;;
71253;SDS011;59019;47.638;18.966;2022-12-05T14:07:40;22.77;;;12.13;;
71253;SDS011;59019;47.638;18.966;2022-12-05T14:28:14;22.35;;;12.95;;
71253;SDS011;59019;47.638;18.966;2022-12-05T14:34:22;24.08;;;13.02;;
71253;SDS011;59019;47.638;18.966;2022-12-05T14:39:59;23.50;;;12.23;;
71253;SDS011;59019;47.638;18.966;2022-12-05T14:42:58;22.42;;;11.98;;
71253;SDS011;59019;47.638;18.966;2022-12-05T14:48:39;21.20;;;12.02;;
71253;SDS011;59019;47.638;18.966;2022-12-05T14:54:15;22.97;;;12.27;;
71253;SDS011;59019;47.638;18.966;2022-12-05T14:57:07;24.85;;;12.65;;
71253;SDS011;59019;47.638;18.966;2022-12-05T15:00:01;24.10;;;13.00;;
71253;SDS011;59019;47.638;18.966;2022-12-05T15:02:51;23.45;;;13.05;;
71253;SDS011;59019;47.638;18.966;2022-12-05T15:05:39;24.92;;;12.93;;
71253;SDS011;59019;47.638;18.966;2022-12-05T15:08:28;26.47;;;14.07;;
71253;SDS011;59019;47.638;18.966;2022-12-05T15:11:23;27.05;;;14.18;;
71253;SDS011;59019;47.638;18.966;2022-12-05T15:14:19;27.05;;;14.63;;
71253;SDS011;59019;47.638;18.966;2022-12-05T15:17:10;25.30;;;13.65;;
71253;SDS011;59019;47.638;18.966;2022-12-05T15:20:15;27.02;;;13.82;;
71253;SDS011;59019;47.638;18.966;2022-12-05T15:23:36;28.30;;;14.27;;
71253;SDS011;59019;47.638;18.966;2022-12-05T15:29:13;26.35;;;14.00;;
71253;SDS011;59019;47.638;18.966;2022-12-05T15:32:17;27.17;;;14.57;;
71253;SDS011;59019;47.638;18.966;2022-12-05T15:35:08;28.25;;;13.73;;
71253;SDS011;59019;47.638;18.966;2022-12-05T15:38:00;26.63;;;13.50;;
71253;SDS011;59019;47.638;18.966;2022-12-05T15:40:58;29.67;;;15.20;;
71253;SDS011;59019;47.638;18.966;2022-12-05T15:43:46;28.23;;;14.98;;
71253;SDS011;59019;47.638;18.966;2022-12-05T15:46:40;27.58;;;13.80;;
71253;SDS011;59019;47.638;18.966;2022-12-05T15:49:26;32.35;;;15.18;;
71253;SDS011;59019;47.638;18.966;2022-12-05T15:52:18;32.40;;;16.43;;
71253;SDS011;59019;47.638;18.966;2022-12-05T15:55:14;33.92;;;16.50;;
71253;SDS011;59019;47.638;18.966;2022-12-05T16:01:23;47.88;;;22.95;;
71253;SDS011;59019;47.638;18.966;2022-12-05T16:04:30;51.53;;;24.38;;
71253;SDS011;59019;47.638;18.966;2022-12-05T16:07:20;36.17;;;18.53;;
71253;SDS011;59019;47.638;18.966;2022-12-05T16:10:12;34.78;;;16.27;;
71253;SDS011;59019;47.638;18.966;2022-12-05T16:13:06;30.65;;;15.27;;
71253;SDS011;59019;47.638;18.966;2022-12-05T16:15:57;31.65;;;15.57;;
71253;SDS011;59019;47.638;18.966;2022-12-05T16:18:51;33.13;;;16.75;;
71253;SDS011;59019;47.638;18.966;2022-12-05T16:21:43;39.00;;;18.40;;
71253;SDS011;59019;47.638;18.966;2022-12-05T16:24:30;39.70;;;17.73;;
71253;SDS011;59019;47.638;18.966;2022-12-05T16:27:20;37.33;;;18.77;;
71253;SDS011;59019;47.638;18.966;2022-12-05T16:33:14;65.05;;;26.65;;
71253;SDS011;59019;47.638;18.966;2022-12-05T16:36:10;49.33;;;23.00;;
71253;SDS011;59019;47.638;18.966;2022-12-05T16:39:03;191.52;;;52.42;;
71253;SDS011;59019;47.638;18.966;2022-12-05T16:41:50;44.25;;;20.17;;
71253;SDS011;59019;47.638;18.966;2022-12-05T16:50:30;37.17;;;17.20;;
71253;SDS011;59019;47.638;18.966;2022-12-05T16:53:18;43.30;;;21.13;;
71253;SDS011;59019;47.638;18.966;2022-12-05T16:56:06;46.72;;;21.40;;
71253;SDS011;59019;47.638;18.966;2022-12-05T16:58:56;35.33;;;16.63;;
71253;SDS011;59019;47.638;18.966;2022-12-05T17:01:45;34.63;;;16.77;;
71253;SDS011;59019;47.638;18.966;2022-12-05T17:04:31;31.73;;;17.03;;
71253;SDS011;59019;47.638;18.966;2022-12-05T17:07:17;30.02;;;15.70;;
71253;SDS011;59019;47.638;18.966;2022-12-05T17:10:02;33.85;;;16.77;;
71253;SDS011;59019;47.638;18.966;2022-12-05T17:12:48;39.47;;;19.42;;
71253;SDS011;59019;47.638;18.966;2022-12-05T17:15:34;33.17;;;16.77;;
71253;SDS011;59019;47.638;18.966;2022-12-05T17:18:20;35.07;;;16.57;;
71253;SDS011;59019;47.638;18.966;2022-12-05T17:21:09;37.08;;;18.92;;
71253;SDS011;59019;47.638;18.966;2022-12-05T17:23:58;34.15;;;17.17;;
71253;SDS011;59019;47.638;18.966;2022-12-05T17:26:44;31.45;;;16.77;;
71253;SDS011;59019;47.638;18.966;2022-12-05T17:29:30;32.45;;;16.10;;
71253;SDS011;59019;47.638;18.966;2022-12-05T17:32:15;32.57;;;15.93;;
71253;SDS011;59019;47.638;18.966;2022-12-05T17:35:01;31.92;;;16.02;;
71253;SDS011;59019;47.638;18.966;2022-12-05T17:37:47;34.20;;;17.10;;
71253;SDS011;59019;47.638;18.966;2022-12-05T17:40:33;35.03;;;17.75;;
71253;SDS011;59019;47.638;18.966;2022-12-05T17:43:18;37.22;;;18.42;;
71253;SDS011;59019;47.638;18.966;2022-12-05T17:46:04;38.17;;;18.53;;
71253;SDS011;59019;47.638;18.966;2022-12-05T17:48:51;37.20;;;17.58;;
71253;SDS011;59019;47.638;18.966;2022-12-05T17:51:37;37.63;;;16.80;;
71253;SDS011;59019;47.638;18.966;2022-12-05T17:54:22;35.78;;;17.77;;
71253;SDS011;59019;47.638;18.966;2022-12-05T17:57:10;32.38;;;16.98;;
71253;SDS011;59019;47.638;18.966;2022-12-05T17:59:55;34.73;;;17.27;;
71253;SDS011;59019;47.638;18.966;2022-12-05T18:02:42;34.78;;;17.15;;
71253;SDS011;59019;47.638;18.966;2022-12-05T18:05:28;36.65;;;17.13;;
71253;SDS011;59019;47.638;18.966;2022-12-05T18:08:14;32.30;;;16.50;;
71253;SDS011;59019;47.638;18.966;2022-12-05T18:11:00;33.45;;;15.68;;
71253;SDS011;59019;47.638;18.966;2022-12-05T18:13:46;32.17;;;15.93;;
71253;SDS011;59019;47.638;18.966;2022-12-05T18:16:31;31.80;;;16.23;;
71253;SDS011;59019;47.638;18.966;2022-12-05T18:19:18;33.25;;;16.45;;
71253;SDS011;59019;47.638;18.966;2022-12-05T18:22:04;32.50;;;15.48;;
71253;SDS011;59019;47.638;18.966;2022-12-05T18:24:50;35.17;;;16.42;;
71253;SDS011;59019;47.638;18.966;2022-12-05T18:27:36;32.33;;;15.07;;
71253;SDS011;59019;47.638;18.966;2022-12-05T18:30:22;34.63;;;16.77;;
71253;SDS011;59019;47.638;18.966;2022-12-05T18:33:08;38.90;;;18.25;;
71253;SDS011;59019;47.638;18.966;2022-12-05T18:35:53;48.92;;;25.13;;
71253;SDS011;59019;47.638;18.966;2022-12-05T18:38:39;37.22;;;18.38;;
71253;SDS011;59019;47.638;18.966;2022-12-05T18:41:24;31.47;;;17.27;;
71253;SDS011;59019;47.638;18.966;2022-12-05T18:44:12;32.85;;;15.50;;
71253;SDS011;59019;47.638;18.966;2022-12-05T18:46:57;30.95;;;16.52;;
71253;SDS011;59019;47.638;18.966;2022-12-05T18:49:43;34.53;;;16.67;;
71253;SDS011;59019;47.638;18.966;2022-12-05T18:52:28;36.17;;;17.05;;
71253;SDS011;59019;47.638;18.966;2022-12-05T18:55:14;35.97;;;16.67;;
71253;SDS011;59019;47.638;18.966;2022-12-05T18:57:44;32.90;;;16.95;;
71253;SDS011;59019;47.638;18.966;2022-12-05T19:00:10;33.88;;;16.52;;
71253;SDS011;59019;47.638;18.966;2022-12-05T19:02:35;28.57;;;14.70;;
71253;SDS011;59019;47.638;18.966;2022-12-05T19:05:01;26.67;;;13.75;;
71253;SDS011;59019;47.638;18.966;2022-12-05T19:07:26;29.37;;;14.40;;
71253;SDS011;59019;47.638;18.966;2022-12-05T19:09:52;31.13;;;15.30;;
71253;SDS011;59019;47.638;18.966;2022-12-05T19:12:17;29.23;;;14.43;;
71253;SDS011;59019;47.638;18.966;2022-12-05T19:14:43;31.83;;;15.35;;
71253;SDS011;59019;47.638;18.966;2022-12-05T19:17:11;33.42;;;16.48;;
71253;SDS011;59019;47.638;18.966;2022-12-05T19:19:36;31.70;;;15.33;;
71253;SDS011;59019;47.638;18.966;2022-12-05T19:22:02;32.67;;;17.08;;
71253;SDS011;59019;47.638;18.966;2022-12-05T19:24:27;32.17;;;15.83;;
71253;SDS011;59019;47.638;18.966;2022-12-05T19:26:53;31.90;;;15.30;;
71253;SDS011;59019;47.638;18.966;2022-12-05T19:29:18;30.77;;;14.50;;
71253;SDS011;59019;47.638;18.966;2022-12-05T19:31:44;31.87;;;15.33;;
71253;SDS011;59019;47.638;18.966;2022-12-05T19:34:10;30.40;;;15.13;;
71253;SDS011;59019;47.638;18.966;2022-12-05T19:36:37;37.78;;;18.27;;
71253;SDS011;59019;47.638;18.966;2022-12-05T19:39:12;31.13;;;15.77;;
71253;SDS011;59019;47.638;18.966;2022-12-05T19:41:40;35.00;;;16.88;;
71253;SDS011;59019;47.638;18.966;2022-12-05T19:44:05;40.23;;;18.70;;
71253;SDS011;59019;47.638;18.966;2022-12-05T19:46:32;37.13;;;17.77;;
71253;SDS011;59019;47.638;18.966;2022-12-05T19:48:58;40.88;;;19.40;;
71253;SDS011;59019;47.638;18.966;2022-12-05T19:51:29;38.10;;;19.03;;
71253;SDS011;59019;47.638;18.966;2022-12-05T19:53:57;41.15;;;17.92;;
71253;SDS011;59019;47.638;18.966;2022-12-05T19:56:24;36.30;;;16.58;;
71253;SDS011;59019;47.638;18.966;2022-12-05T19:58:51;33.45;;;17.05;;
71253;SDS011;59019;47.638;18.966;2022-12-05T20:01:25;33.70;;;16.42;;
71253;SDS011;59019;47.638;18.966;2022-12-05T20:03:53;34.77;;;16.90;;
71253;SDS011;59019;47.638;18.966;2022-12-05T20:06:21;36.10;;;17.08;;
71253;SDS011;59019;47.638;18.966;2022-12-05T20:08:47;34.67;;;16.30;;
71253;SDS011;59019;47.638;18.966;2022-12-05T20:11:21;31.27;;;15.65;;
71253;SDS011;59019;47.638;18.966;2022-12-05T20:13:52;35.75;;;16.50;;
71253;SDS011;59019;47.638;18.966;2022-12-05T20:16:19;37.47;;;17.53;;
71253;SDS011;59019;47.638;18.966;2022-12-05T20:18:46;65.20;;;26.17;;
71253;SDS011;59019;47.638;18.966;2022-12-05T20:21:14;46.88;;;20.73;;
71253;SDS011;59019;47.638;18.966;2022-12-05T20:23:41;43.75;;;20.05;;
71253;SDS011;59019;47.638;18.966;2022-12-05T20:28:34;60.42;;;25.48;;
71253;SDS011;59019;47.638;18.966;2022-12-05T20:31:07;51.17;;;21.20;;
71253;SDS011;59019;47.638;18.966;2022-12-05T20:33:35;52.53;;;22.50;;
71253;SDS011;59019;47.638;18.966;2022-12-05T20:36:07;47.15;;;19.83;;
71253;SDS011;59019;47.638;18.966;2022-12-05T20:38:35;39.67;;;17.70;;
71253;SDS011;59019;47.638;18.966;2022-12-05T20:41:04;46.47;;;19.02;;
71253;SDS011;59019;47.638;18.966;2022-12-05T20:43:30;43.50;;;18.95;;
71253;SDS011;59019;47.638;18.966;2022-12-05T20:46:01;43.08;;;19.27;;
71253;SDS011;59019;47.638;18.966;2022-12-05T20:48:29;43.42;;;18.15;;
71253;SDS011;59019;47.638;18.966;2022-12-05T20:50:54;45.63;;;19.00;;
71253;SDS011;59019;47.638;18.966;2022-12-05T20:53:20;43.93;;;19.47;;
71253;SDS011;59019;47.638;18.966;2022-12-05T20:55:46;55.97;;;25.95;;
71253;SDS011;59019;47.638;18.966;2022-12-05T20:58:12;59.35;;;26.10;;
71253;SDS011;59019;47.638;18.966;2022-12-05T21:00:38;88.57;;;35.60;;
71253;SDS011;59019;47.638;18.966;2022-12-05T21:03:03;82.38;;;36.25;;
71253;SDS011;59019;47.638;18.966;2022-12-05T21:05:29;60.57;;;25.93;;
71253;SDS011;59019;47.638;18.966;2022-12-05T21:07:54;51.63;;;22.30;;
71253;SDS011;59019;47.638;18.966;2022-12-05T21:10:20;51.20;;;21.70;;
71253;SDS011;59019;47.638;18.966;2022-12-05T21:12:45;46.57;;;20.97;;
71253;SDS011;59019;47.638;18.966;2022-12-05T21:15:11;56.57;;;26.50;;
71253;SDS011;59019;47.638;18.966;2022-12-05T21:17:36;57.30;;;23.58;;
71253;SDS011;59019;47.638;18.966;2022-12-05T21:20:02;52.70;;;20.27;;
71253;SDS011;59019;47.638;18.966;2022-12-05T21:22:29;50.03;;;21.08;;
71253;SDS011;59019;47.638;18.966;2022-12-05T21:24:54;56.60;;;22.47;;
71253;SDS011;59019;47.638;18.966;2022-12-05T21:27:20;49.13;;;19.43;;
71253;SDS011;59019;47.638;18.966;2022-12-05T21:29:45;51.88;;;20.63;;
71253;SDS011;59019;47.638;18.966;2022-12-05T21:32:11;51.93;;;21.20;;
71253;SDS011;59019;47.638;18.966;2022-12-05T21:34:36;49.73;;;20.17;;
71253;SDS011;59019;47.638;18.966;2022-12-05T21:37:03;47.97;;;19.33;;
71253;SDS011;59019;47.638;18.966;2022-12-05T21:39:28;49.17;;;20.00;;
71253;SDS011;59019;47.638;18.966;2022-12-05T21:41:54;52.70;;;21.53;;
71253;SDS011;59019;47.638;18.966;2022-12-05T21:44:20;49.45;;;21.33;;
71253;SDS011;59019;47.638;18.966;2022-12-05T21:46:45;51.83;;;21.70;;
71253;SDS011;59019;47.638;18.966;2022-12-05T21:49:12;65.18;;;28.95;;
71253;SDS011;59019;47.638;18.966;2022-12-05T21:51:38;54.53;;;24.10;;
71253;SDS011;59019;47.638;18.966;2022-12-05T21:54:04;52.80;;;21.10;;
71253;SDS011;59019;47.638;18.966;2022-12-05T21:56:29;51.40;;;21.25;;
71253;SDS011;59019;47.638;18.966;2022-12-05T21:58:55;51.03;;;20.80;;
71253;SDS011;59019;47.638;18.966;2022-12-05T22:01:22;55.93;;;21.63;;
71253;SDS011;59019;47.638;18.966;2022-12-05T22:03:55;62.92;;;24.38;;
71253;SDS011;59019;47.638;18.966;2022-12-05T22:06:25;55.58;;;22.65;;
71253;SDS011;59019;47.638;18.966;2022-12-05T22:08:52;55.65;;;23.23;;
71253;SDS011;59019;47.638;18.966;2022-12-05T22:11:19;61.27;;;24.53;;
71253;SDS011;59019;47.638;18.966;2022-12-05T22:13:47;70.57;;;29.63;;
71253;SDS011;59019;47.638;18.966;2022-12-05T22:16:13;80.22;;;29.35;;
71253;SDS011;59019;47.638;18.966;2022-12-05T22:18:39;61.20;;;25.38;;
71253;SDS011;59019;47.638;18.966;2022-12-05T22:21:13;53.55;;;23.95;;
71253;SDS011;59019;47.638;18.966;2022-12-05T22:23:40;61.83;;;23.50;;